createdAt,value
2022-10-06T00:00:00.925Z,10.63
2022-10-06T00:02:28.226Z,10.59
2022-10-06T00:04:55.066Z,10.68
2022-10-06T00:07:21.626Z,10.62
2022-10-06T00:09:48.153Z,10.66
2022-10-06T00:12:15.506Z,10.63
2022-10-06T00:14:42.121Z,10.65
2022-10-06T00:17:08.803Z,10.65
2022-10-06T00:19:35.550Z,10.65
2022-10-06T00:22:02.094Z,10.73
2022-10-06T00:24:28.732Z,10.74
2022-10-06T00:26:55.293Z,10.77
2022-10-06T00:29:21.867Z,10.80
2022-10-06T00:31:48.458Z,10.71
2022-10-06T00:34:15.198Z,10.83
2022-10-06T00:36:41.853Z,11.00
2022-10-06T00:39:08.488Z,11.09
2022-10-06T00:41:35.354Z,11.06
2022-10-06T00:44:02.094Z,11.10
2022-10-06T00:46:33.729Z,11.04
2022-10-06T00:49:08.672Z,11.01
2022-10-06T00:51:37.054Z,11.04
2022-10-06T00:54:03.931Z,11.02
2022-10-06T00:56:31.609Z,11.03
2022-10-06T00:58:58.139Z,11.03
2022-10-06T01:01:25.827Z,11.08
2022-10-06T01:03:59.690Z,10.98
2022-10-06T01:06:26.343Z,10.92
2022-10-06T01:08:53.486Z,10.94
2022-10-06T01:11:21.255Z,10.95
2022-10-06T01:13:47.937Z,10.94
2022-10-06T01:16:23.569Z,10.94
2022-10-06T01:18:50.305Z,10.93
2022-10-06T01:21:38.882Z,10.84
2022-10-06T01:24:05.817Z,10.79
2022-10-06T01:26:35.920Z,10.76
2022-10-06T01:29:02.650Z,10.64
2022-10-06T01:31:29.555Z,10.70
2022-10-06T01:34:03.247Z,10.71
2022-10-06T01:36:29.981Z,10.82
2022-10-06T01:38:56.517Z,10.75
2022-10-06T01:41:24.891Z,10.81
2022-10-06T01:43:51.457Z,10.82
2022-10-06T01:46:18.127Z,10.76
2022-10-06T01:48:44.712Z,10.72
2022-10-06T01:51:17.457Z,10.75
2022-10-06T01:53:44.059Z,10.67
2022-10-06T01:56:11.305Z,10.54
2022-10-06T01:58:38.047Z,10.64
2022-10-06T02:01:08.589Z,10.63
2022-10-06T02:03:36.685Z,10.62
2022-10-06T02:06:03.551Z,10.54
2022-10-06T02:08:30.803Z,10.55
2022-10-06T02:10:57.687Z,10.46
2022-10-06T02:13:27.970Z,10.52
2022-10-06T02:15:57.983Z,10.47
2022-10-06T02:18:25.361Z,10.47
2022-10-06T02:20:52.345Z,10.42
2022-10-06T02:23:18.897Z,10.44
2022-10-06T02:25:45.430Z,10.49
2022-10-06T02:28:12.034Z,10.54
2022-10-06T02:30:38.583Z,10.56
2022-10-06T02:33:05.262Z,10.64
2022-10-06T02:35:32.002Z,10.63
2022-10-06T02:37:58.657Z,10.62
2022-10-06T02:40:25.223Z,10.55
2022-10-06T02:42:51.826Z,10.54
2022-10-06T02:45:18.318Z,10.56
2022-10-06T02:47:44.910Z,10.53
2022-10-06T02:50:11.482Z,10.34
2022-10-06T02:52:41.119Z,10.36
2022-10-06T02:55:08.618Z,10.35
2022-10-06T02:57:35.303Z,10.31
2022-10-06T03:00:02.044Z,10.26
2022-10-06T03:02:30.890Z,10.27
2022-10-06T03:04:57.967Z,10.23
2022-10-06T03:07:24.612Z,10.23
2022-10-06T03:09:51.218Z,10.17
2022-10-06T03:12:17.723Z,10.13
2022-10-06T03:14:44.283Z,10.09
2022-10-06T03:17:10.861Z,10.08
2022-10-06T03:19:37.869Z,10.11
2022-10-06T03:22:05.708Z,10.12
2022-10-06T03:24:32.821Z,10.06
2022-10-06T03:26:59.685Z,10.04
2022-10-06T03:29:26.273Z,10.10
2022-10-06T03:31:52.800Z,9.98
2022-10-06T03:34:20.703Z,10.07
2022-10-06T03:36:47.260Z,10.06
2022-10-06T03:39:13.782Z,9.97
2022-10-06T03:41:40.692Z,9.99
2022-10-06T03:44:07.329Z,9.99
2022-10-06T03:46:36.181Z,10.03
2022-10-06T03:49:03.257Z,10.03
2022-10-06T03:51:35.857Z,10.02
2022-10-06T03:54:02.767Z,10.16
2022-10-06T03:56:37.970Z,10.14
2022-10-06T03:59:10.136Z,10.21
2022-10-06T04:01:41.146Z,10.12
2022-10-06T04:04:08.362Z,10.13
2022-10-06T04:06:37.606Z,10.17
2022-10-06T04:09:07.772Z,10.12
2022-10-06T04:11:38.279Z,10.28
2022-10-06T04:14:07.830Z,10.21
2022-10-06T04:16:36.920Z,10.31
2022-10-06T04:19:07.178Z,10.15
2022-10-06T04:21:38.739Z,10.09
2022-10-06T04:24:06.830Z,10.07
2022-10-06T04:26:39.233Z,10.04
2022-10-06T04:29:06.451Z,10.05
2022-10-06T04:31:36.328Z,10.11
2022-10-06T04:34:04.212Z,10.13
2022-10-06T04:36:33.282Z,10.21
2022-10-06T04:39:02.896Z,10.26
2022-10-06T04:41:34.826Z,10.25
2022-10-06T04:44:02.633Z,10.21
2022-10-06T04:46:42.781Z,10.31
2022-10-06T04:49:14.711Z,10.34
2022-10-06T04:51:45.568Z,10.41
2022-10-06T04:54:12.317Z,10.40
2022-10-06T04:56:38.840Z,10.51
2022-10-06T04:59:05.417Z,10.48
2022-10-06T05:01:34.219Z,10.44
2022-10-06T05:04:02.642Z,10.42
2022-10-06T05:06:31.532Z,10.36
2022-10-06T05:09:01.153Z,10.41
2022-10-06T05:11:28.521Z,10.48
2022-10-06T05:13:57.035Z,10.51
2022-10-06T05:16:25.535Z,10.50
2022-10-06T05:18:52.222Z,10.47
2022-10-06T05:21:25.141Z,10.72
2022-10-06T05:23:52.304Z,10.72
2022-10-06T05:26:22.130Z,10.62
2022-10-06T05:28:49.076Z,10.65
2022-10-06T05:31:21.586Z,10.57
2022-10-06T05:33:48.511Z,10.45
2022-10-06T05:36:18.168Z,10.39
2022-10-06T05:38:45.582Z,10.43
2022-10-06T05:41:17.685Z,10.49
2022-10-06T05:43:44.889Z,10.46
2022-10-06T05:46:21.102Z,10.49
2022-10-06T05:48:49.252Z,10.48
2022-10-06T05:51:17.157Z,10.32
2022-10-06T05:53:44.486Z,10.45
2022-10-06T05:56:18.133Z,10.52
2022-10-06T05:58:46.918Z,10.51
2022-10-06T06:01:13.553Z,10.42
2022-10-06T06:03:41.898Z,10.44
2022-10-06T06:06:22.319Z,10.54
2022-10-06T06:08:54.570Z,10.65
2022-10-06T06:11:27.862Z,10.79
2022-10-06T06:14:04.794Z,10.97
2022-10-06T06:16:32.183Z,11.03
2022-10-06T06:19:00.346Z,11.15
2022-10-06T06:21:28.362Z,11.24
2022-10-06T06:23:55.356Z,11.31
2022-10-06T06:26:24.153Z,11.38
2022-10-06T06:28:52.338Z,11.40
2022-10-06T06:31:26.696Z,11.46
2022-10-06T06:33:58.314Z,11.60
2022-10-06T06:36:27.917Z,11.75
2022-10-06T06:38:57.194Z,11.82
2022-10-06T06:41:26.418Z,11.94
2022-10-06T06:43:53.693Z,12.13
2022-10-06T06:46:26.583Z,12.28
2022-10-06T06:48:55.040Z,12.43
2022-10-06T06:51:24.201Z,12.53
2022-10-06T06:53:52.679Z,12.62
2022-10-06T06:56:21.752Z,12.61
2022-10-06T06:58:49.000Z,12.66
2022-10-06T07:01:18.632Z,12.72
2022-10-06T07:03:58.888Z,12.80
2022-10-06T07:06:28.756Z,12.95
2022-10-06T07:08:57.939Z,13.03
2022-10-06T07:11:30.221Z,13.15
2022-10-06T07:14:01.490Z,13.24
2022-10-06T07:16:48.525Z,13.35
2022-10-06T07:19:35.145Z,13.49
2022-10-06T07:22:26.146Z,13.58
2022-10-06T07:25:13.144Z,13.68
2022-10-06T07:27:45.682Z,13.79
2022-10-06T07:30:21.679Z,13.90
2022-10-06T07:32:50.275Z,14.05
2022-10-06T07:35:20.265Z,14.22
2022-10-06T07:37:47.457Z,14.31
2022-10-06T07:40:14.960Z,14.25
2022-10-06T07:42:48.412Z,14.29
2022-10-06T07:45:38.296Z,14.36
2022-10-06T07:48:14.383Z,14.51
2022-10-06T07:50:42.511Z,14.65
2022-10-06T07:53:09.241Z,14.77
2022-10-06T07:55:41.372Z,14.82
2022-10-06T07:58:10.803Z,14.91
2022-10-06T08:00:37.532Z,14.94
2022-10-06T08:03:04.403Z,15.12
2022-10-06T08:05:32.371Z,15.00
2022-10-06T08:07:58.995Z,15.17
2022-10-06T08:10:26.068Z,15.62
2022-10-06T08:12:52.691Z,16.07
2022-10-06T08:15:19.742Z,16.41
2022-10-06T08:17:46.545Z,16.58
2022-10-06T08:20:14.214Z,16.87
2022-10-06T08:22:41.219Z,16.90
2022-10-06T08:25:10.213Z,17.09
2022-10-06T08:27:37.623Z,17.33
2022-10-06T08:30:07.850Z,17.63
2022-10-06T08:32:34.542Z,17.85
2022-10-06T08:35:01.510Z,18.12
2022-10-06T08:37:28.125Z,18.45
2022-10-06T08:39:55.771Z,18.67
2022-10-06T08:42:48.543Z,18.96
2022-10-06T08:45:38.466Z,18.98
2022-10-06T08:48:14.371Z,18.94
2022-10-06T08:50:53.567Z,18.71
2022-10-06T08:53:35.899Z,18.79
2022-10-06T08:56:20.272Z,18.68
2022-10-06T08:58:55.747Z,18.46
2022-10-06T09:01:45.496Z,18.31
2022-10-06T09:04:31.914Z,18.57
2022-10-06T09:07:12.578Z,18.59
2022-10-06T09:10:10.714Z,18.61
2022-10-06T09:12:57.710Z,18.30
2022-10-06T09:15:35.072Z,18.46
2022-10-06T09:18:12.034Z,18.60
2022-10-06T09:20:45.182Z,18.51
2022-10-06T09:23:17.995Z,18.42
2022-10-06T09:25:44.926Z,18.48
2022-10-06T09:28:15.909Z,18.43
2022-10-06T09:30:43.529Z,18.33
2022-10-06T09:33:20.803Z,18.38
2022-10-06T09:36:09.969Z,18.28
2022-10-06T09:38:47.879Z,18.06
2022-10-06T09:41:15.835Z,18.14
2022-10-06T09:43:53.017Z,18.01
2022-10-06T09:46:39.666Z,18.15
2022-10-06T09:49:18.474Z,18.05
2022-10-06T09:51:59.039Z,18.09
2022-10-06T09:54:25.734Z,18.21
2022-10-06T09:56:54.136Z,18.29
2022-10-06T09:59:24.197Z,18.38
2022-10-06T10:01:55.732Z,18.46
2022-10-06T10:04:26.949Z,18.48
2022-10-06T10:06:53.938Z,18.55
2022-10-06T10:09:29.155Z,18.57
2022-10-06T10:12:24.586Z,18.57
2022-10-06T10:14:52.347Z,18.71
2022-10-06T10:17:22.251Z,18.69
2022-10-06T10:19:54.479Z,18.85
2022-10-06T10:22:43.352Z,18.74
2022-10-06T10:25:31.829Z,18.88
2022-10-06T10:28:22.745Z,19.03
2022-10-06T10:31:00.467Z,18.90
2022-10-06T10:33:46.187Z,19.12
2022-10-06T10:36:28.518Z,19.15
2022-10-06T10:38:55.417Z,19.14
2022-10-06T10:41:36.910Z,19.05
2022-10-06T10:44:10.203Z,19.09
2022-10-06T10:46:49.844Z,19.12
2022-10-06T10:49:23.759Z,19.25
2022-10-06T10:51:56.657Z,19.48
2022-10-06T10:54:48.980Z,19.41
2022-10-06T10:57:18.094Z,19.29
2022-10-06T10:59:47.414Z,19.28
2022-10-06T11:02:20.861Z,19.39
2022-10-06T11:04:51.099Z,19.58
2022-10-06T11:07:36.459Z,19.71
2022-10-06T11:10:16.618Z,19.80
2022-10-06T11:13:15.688Z,19.74
2022-10-06T11:16:00.510Z,19.89
2022-10-06T11:19:18.363Z,19.90
2022-10-06T11:22:16.538Z,19.68
2022-10-06T11:25:13.879Z,19.70
2022-10-06T11:28:02.077Z,19.74
2022-10-06T11:30:30.799Z,19.80
2022-10-06T11:33:28.345Z,19.90
2022-10-06T11:35:55.703Z,19.86
2022-10-06T11:38:42.422Z,19.86
2022-10-06T11:41:28.898Z,19.99
2022-10-06T11:44:04.460Z,19.94
2022-10-06T11:46:50.782Z,20.14
2022-10-06T11:49:29.456Z,20.17
2022-10-06T11:52:00.195Z,20.13
2022-10-06T11:54:40.148Z,20.23
2022-10-06T11:57:30.561Z,20.36
2022-10-06T12:00:15.809Z,20.25
2022-10-06T12:02:44.800Z,20.41
2022-10-06T12:05:47.163Z,20.31
2022-10-06T12:08:01.433Z,20.59
2022-10-06T12:10:27.960Z,20.50
2022-10-06T12:13:31.829Z,20.61
2022-10-06T12:19:18.756Z,20.70
2022-10-06T12:21:52.772Z,20.71
2022-10-06T12:24:33.357Z,20.72
2022-10-06T12:27:05.764Z,20.80
2022-10-06T12:29:32.241Z,21.10
2022-10-06T12:32:31.255Z,21.23
2022-10-06T12:35:19.958Z,21.23
2022-10-06T12:37:53.800Z,21.47
2022-10-06T12:40:42.144Z,21.36
2022-10-06T12:43:14.829Z,21.65
2022-10-06T12:45:46.308Z,21.90
2022-10-06T12:48:24.690Z,22.11
2022-10-06T12:51:06.547Z,21.99
2022-10-06T12:53:45.859Z,21.56
2022-10-06T12:56:28.303Z,21.17
2022-10-06T12:58:56.019Z,21.48
2022-10-06T13:01:24.146Z,21.33
2022-10-06T13:03:51.924Z,21.55
2022-10-06T13:06:25.375Z,21.95
2022-10-06T13:09:12.911Z,22.06
2022-10-06T13:11:39.799Z,22.57
2022-10-06T13:14:13.549Z,22.45
2022-10-06T13:16:44.388Z,22.61
2022-10-06T13:19:22.345Z,22.44
2022-10-06T13:21:49.154Z,22.08
2022-10-06T13:24:20.775Z,21.98
2022-10-06T13:26:48.110Z,22.03
2022-10-06T13:29:25.815Z,21.75
2022-10-06T13:31:55.074Z,21.99
2022-10-06T13:34:30.419Z,21.69
2022-10-06T13:36:59.441Z,21.97
2022-10-06T13:39:31.864Z,22.30
2022-10-06T13:42:04.196Z,22.02
2022-10-06T13:44:42.181Z,22.17
2022-10-06T13:47:19.868Z,22.25
2022-10-06T13:49:51.903Z,21.85
2022-10-06T13:52:38.159Z,22.03
2022-10-06T13:55:19.184Z,21.71
2022-10-06T13:57:49.108Z,21.66
2022-10-06T14:00:19.296Z,21.84
2022-10-06T14:02:48.979Z,22.00
2022-10-06T14:05:34.765Z,21.94
2022-10-06T14:08:11.219Z,22.00
2022-10-06T14:10:40.953Z,21.53
2022-10-06T14:13:13.354Z,21.73
2022-10-06T14:15:48.544Z,21.93
2022-10-06T14:18:24.301Z,21.84
2022-10-06T14:20:53.574Z,21.96
2022-10-06T14:23:32.981Z,21.99
2022-10-06T14:25:59.667Z,21.75
2022-10-06T14:28:26.249Z,21.82
2022-10-06T14:30:53.773Z,21.72
2022-10-06T14:33:20.554Z,21.64
2022-10-06T14:35:48.577Z,21.82
2022-10-06T14:38:15.409Z,21.75
2022-10-06T14:40:42.961Z,21.83
2022-10-06T14:43:09.995Z,21.86
2022-10-06T14:45:41.514Z,21.90
2022-10-06T14:48:08.368Z,21.83
2022-10-06T14:50:35.217Z,21.86
2022-10-06T14:53:02.615Z,21.91
2022-10-06T14:55:31.169Z,21.78
2022-10-06T14:57:58.312Z,21.84
2022-10-06T15:00:28.468Z,21.69
2022-10-06T15:02:56.563Z,21.70
2022-10-06T15:05:23.882Z,21.83
2022-10-06T15:08:09.685Z,22.10
2022-10-06T15:10:38.346Z,22.38
2022-10-06T15:13:08.475Z,23.14
2022-10-06T15:15:36.307Z,23.55
2022-10-06T15:18:03.710Z,24.00
2022-10-06T15:20:30.370Z,24.37
2022-10-06T15:22:57.381Z,24.85
2022-10-06T15:25:43.124Z,25.16
2022-10-06T15:28:31.820Z,25.59
2022-10-06T15:30:58.673Z,26.06
2022-10-06T15:33:27.254Z,25.98
2022-10-06T15:36:20.082Z,26.47
2022-10-06T15:38:47.194Z,25.53
2022-10-06T15:41:13.890Z,25.26
2022-10-06T15:43:56.190Z,25.34
2022-10-06T15:46:56.113Z,25.93
2022-10-06T15:49:24.122Z,25.85
2022-10-06T15:51:59.575Z,26.23
2022-10-06T15:54:29.064Z,25.78
2022-10-06T15:56:57.922Z,25.48
2022-10-06T15:59:26.311Z,25.36
2022-10-06T16:01:58.136Z,25.19
2022-10-06T16:04:39.910Z,24.83
2022-10-06T16:07:12.184Z,23.62
2022-10-06T16:09:43.374Z,22.85
2022-10-06T16:12:13.177Z,22.18
2022-10-06T16:14:39.983Z,21.48
2022-10-06T16:17:06.933Z,20.78
2022-10-06T16:19:36.984Z,20.43
2022-10-06T16:22:05.030Z,20.04
2022-10-06T16:24:32.053Z,19.67
2022-10-06T16:27:00.299Z,19.53
2022-10-06T16:29:28.093Z,19.15
2022-10-06T16:31:55.169Z,18.95
2022-10-06T16:34:22.591Z,18.63
2022-10-06T16:36:49.286Z,18.42
2022-10-06T16:39:18.992Z,18.18
2022-10-06T16:41:45.971Z,17.85
2022-10-06T16:44:13.004Z,17.68
2022-10-06T16:46:40.168Z,17.43
2022-10-06T16:49:08.729Z,17.18
2022-10-06T16:51:40.269Z,16.96
2022-10-06T16:54:11.842Z,16.70
2022-10-06T16:56:44.438Z,16.55
2022-10-06T16:59:14.578Z,16.34
2022-10-06T17:01:41.872Z,16.06
2022-10-06T17:04:13.644Z,15.90
2022-10-06T17:06:45.760Z,15.69
2022-10-06T17:09:17.353Z,15.61
2022-10-06T17:11:46.671Z,15.50
2022-10-06T17:14:13.434Z,15.42
2022-10-06T17:16:42.511Z,15.31
2022-10-06T17:19:14.538Z,15.13
2022-10-06T17:21:46.766Z,15.06
2022-10-06T17:24:15.485Z,14.97
2022-10-06T17:26:44.452Z,14.91
2022-10-06T17:29:17.781Z,14.80
2022-10-06T17:31:45.239Z,14.73
2022-10-06T17:34:20.648Z,14.66
2022-10-06T17:36:49.464Z,14.64
2022-10-06T17:39:25.100Z,14.56
2022-10-06T17:41:53.558Z,14.46
2022-10-06T17:44:23.762Z,14.43
2022-10-06T17:46:56.355Z,14.32
2022-10-06T17:49:24.301Z,14.30
2022-10-06T17:51:52.367Z,14.24
2022-10-06T17:54:21.962Z,13.97
2022-10-06T17:56:51.089Z,14.05
2022-10-06T17:59:22.118Z,14.03
2022-10-06T18:01:49.356Z,14.03
2022-10-06T18:04:16.171Z,13.94
2022-10-06T18:06:45.182Z,13.97
2022-10-06T18:09:12.825Z,13.83
2022-10-06T18:11:43.405Z,13.78
2022-10-06T18:14:17.502Z,13.77
2022-10-06T18:16:58.845Z,13.70
2022-10-06T18:19:26.803Z,13.62
2022-10-06T18:22:07.939Z,13.60
2022-10-06T18:24:34.518Z,13.62
2022-10-06T18:27:01.546Z,13.55
2022-10-06T18:29:33.497Z,13.51
2022-10-06T18:33:40.241Z,13.47
2022-10-06T18:37:34.036Z,13.45
2022-10-06T18:40:02.482Z,13.37
2022-10-06T18:42:29.673Z,13.34
2022-10-06T18:45:14.672Z,13.32
2022-10-06T18:47:59.699Z,13.28
2022-10-06T18:50:26.485Z,13.14
2022-10-06T18:52:53.006Z,13.15
2022-10-06T18:55:19.534Z,13.22
2022-10-06T18:57:46.282Z,13.22
2022-10-06T19:00:13.076Z,13.16
2022-10-06T19:02:39.655Z,13.18
2022-10-06T19:05:06.612Z,13.15
2022-10-06T19:07:33.671Z,13.14
2022-10-06T19:10:00.213Z,13.03
2022-10-06T19:12:26.844Z,13.09
2022-10-06T19:14:53.388Z,13.06
2022-10-06T19:17:22.794Z,13.03
2022-10-06T19:19:51.585Z,12.97
2022-10-06T19:22:21.582Z,12.96
2022-10-06T19:24:48.570Z,12.88
2022-10-06T19:27:20.742Z,12.85
2022-10-06T19:29:54.553Z,12.87
2022-10-06T19:32:28.277Z,12.87
2022-10-06T19:34:58.931Z,12.84
2022-10-06T19:37:28.307Z,12.83
2022-10-06T19:39:54.866Z,12.82
2022-10-06T19:42:40.576Z,12.80
2022-10-06T19:45:08.691Z,12.77
2022-10-06T19:47:35.738Z,12.77
2022-10-06T19:50:08.713Z,12.74
2022-10-06T19:52:38.178Z,12.70
2022-10-06T19:55:05.163Z,12.67
2022-10-06T19:57:32.778Z,12.67
2022-10-06T19:59:59.343Z,12.65
2022-10-06T20:02:26.027Z,12.57
2022-10-06T20:04:52.571Z,12.58
2022-10-06T20:07:21.756Z,12.64
2022-10-06T20:09:49.155Z,12.66
2022-10-06T20:12:18.748Z,12.64
2022-10-06T20:14:50.000Z,12.73
2022-10-06T20:17:17.567Z,12.83
2022-10-06T20:19:44.208Z,13.00
2022-10-06T20:22:10.952Z,13.15
2022-10-06T20:24:37.587Z,13.27
2022-10-06T20:27:04.442Z,13.30
2022-10-06T20:29:31.391Z,13.34
2022-10-06T20:32:01.131Z,13.34
2022-10-06T20:34:32.551Z,13.31
2022-10-06T20:37:04.139Z,13.43
2022-10-06T20:39:51.945Z,13.50
2022-10-06T20:42:19.911Z,13.51
2022-10-06T20:44:47.103Z,13.50
2022-10-06T20:47:14.333Z,13.47
2022-10-06T20:49:42.622Z,13.45
2022-10-06T20:52:10.138Z,13.40
2022-10-06T20:54:37.483Z,13.36
2022-10-06T20:57:06.343Z,13.45
2022-10-06T20:59:35.547Z,13.35
2022-10-06T21:02:03.397Z,13.35
2022-10-06T21:04:30.384Z,13.44
2022-10-06T21:06:57.681Z,13.50
2022-10-06T21:09:25.001Z,13.40
2022-10-06T21:11:51.945Z,13.47
2022-10-06T21:14:19.254Z,13.41
2022-10-06T21:16:48.197Z,13.37
2022-10-06T21:19:19.474Z,13.39
2022-10-06T21:21:52.275Z,13.33
2022-10-06T21:24:20.545Z,13.24
2022-10-06T21:26:47.844Z,13.32
2022-10-06T21:29:15.971Z,13.33
2022-10-06T21:31:43.893Z,13.27
2022-10-06T21:34:10.647Z,13.25
2022-10-06T21:36:38.056Z,13.15
2022-10-06T21:39:06.750Z,13.24
2022-10-06T21:41:39.435Z,13.23
2022-10-06T21:44:07.244Z,13.23
2022-10-06T21:46:35.167Z,13.24
2022-10-06T21:49:03.958Z,13.18
2022-10-06T21:51:32.198Z,13.10
2022-10-06T21:54:00.400Z,13.11
2022-10-06T21:56:29.074Z,13.06
2022-10-06T21:58:56.623Z,13.06
2022-10-06T22:01:44.676Z,13.05
2022-10-06T22:04:14.220Z,13.08
2022-10-06T22:06:41.787Z,12.98
2022-10-06T22:09:11.768Z,12.99
2022-10-06T22:11:39.677Z,13.00
2022-10-06T22:14:10.209Z,12.95
2022-10-06T22:16:37.974Z,13.07
2022-10-06T22:19:06.730Z,13.06
2022-10-06T22:21:36.401Z,13.08
2022-10-06T22:24:07.897Z,13.02
2022-10-06T22:26:37.507Z,12.94
2022-10-06T22:29:06.698Z,12.83
2022-10-06T22:31:34.449Z,12.76
2022-10-06T22:34:04.811Z,12.72
2022-10-06T22:36:33.075Z,12.56
2022-10-06T22:39:00.749Z,12.40
2022-10-06T22:41:27.393Z,12.28
2022-10-06T22:43:58.327Z,12.17
2022-10-06T22:46:28.067Z,12.06
2022-10-06T22:48:55.364Z,11.98
2022-10-06T22:51:22.570Z,11.84
2022-10-06T22:53:58.348Z,11.70
2022-10-06T22:56:26.911Z,11.65
2022-10-06T22:58:53.550Z,11.59
2022-10-06T23:01:20.955Z,11.56
2022-10-06T23:03:48.058Z,11.50
2022-10-06T23:06:17.524Z,11.46
2022-10-06T23:08:44.761Z,11.36
2022-10-06T23:11:16.490Z,11.33
2022-10-06T23:13:43.500Z,11.29
2022-10-06T23:16:12.256Z,11.16
2022-10-06T23:18:40.818Z,11.15
2022-10-06T23:21:22.191Z,11.18
2022-10-06T23:23:53.904Z,11.15
2022-10-06T23:26:21.858Z,11.17
2022-10-06T23:28:56.680Z,11.18
2022-10-06T23:31:23.971Z,11.30
2022-10-06T23:33:50.824Z,11.38
2022-10-06T23:36:17.965Z,11.47
2022-10-06T23:38:45.592Z,11.52
2022-10-06T23:41:12.688Z,11.67
2022-10-06T23:43:39.373Z,11.81
2022-10-06T23:46:06.279Z,11.89
2022-10-06T23:48:32.987Z,12.00
2022-10-06T23:51:01.263Z,12.10
2022-10-06T23:53:28.966Z,12.23
2022-10-06T23:55:56.235Z,12.29
2022-10-06T23:58:23.686Z,12.45
